createdAt,value
2023-07-19T00:01:29.737Z,101167.22
2023-07-19T00:03:31.395Z,101165.38
2023-07-19T00:05:32.952Z,101157.44
2023-07-19T00:07:34.543Z,101161.97
2023-07-19T00:09:36.103Z,101164.78
2023-07-19T00:11:37.595Z,101162.22
2023-07-19T00:13:39.061Z,101157.72
2023-07-19T00:15:40.722Z,101160.41
2023-07-19T00:17:45.728Z,101162.38
2023-07-19T00:19:47.279Z,101167.75
2023-07-19T00:21:48.781Z,101165.19
2023-07-19T00:23:50.254Z,101155.41
2023-07-19T00:25:51.866Z,101158.09
2023-07-19T00:27:53.422Z,101152.88
2023-07-19T00:29:54.902Z,101160.94
2023-07-19T00:31:56.338Z,101163.75
2023-07-19T00:33:57.856Z,101167.28
2023-07-19T00:35:59.520Z,101162.91
2023-07-19T00:38:00.990Z,101170.94
2023-07-19T00:40:02.856Z,101163.03
2023-07-19T00:42:04.526Z,101165.72
2023-07-19T00:44:06.236Z,101158.63
2023-07-19T00:46:08.203Z,101157.81
2023-07-19T00:48:09.918Z,101148.78
2023-07-19T00:50:11.947Z,101157.91
2023-07-19T00:52:13.680Z,101163.41
2023-07-19T00:54:15.605Z,101154.38
2023-07-19T00:56:18.124Z,101160.75
2023-07-19T00:58:21.917Z,101158.88
2023-07-19T01:00:24.081Z,101160.00
2023-07-19T01:02:26.508Z,101160.88
2023-07-19T01:04:30.644Z,101160.00
2023-07-19T01:06:32.247Z,101165.38
2023-07-19T01:08:33.812Z,101162.84
2023-07-19T01:10:35.376Z,101156.63
2023-07-19T01:12:36.877Z,101160.28
2023-07-19T01:14:38.430Z,101156.72
2023-07-19T01:16:39.900Z,101155.91
2023-07-19T01:18:41.416Z,101151.47
2023-07-19T01:20:42.922Z,101150.63
2023-07-19T01:22:47.073Z,101156.84
2023-07-19T01:24:48.640Z,101155.13
2023-07-19T01:26:50.151Z,101156.97
2023-07-19T01:28:51.668Z,101156.09
2023-07-19T01:30:53.327Z,101159.78
2023-07-19T01:32:54.986Z,101162.47
2023-07-19T01:34:56.557Z,101157.97
2023-07-19T01:36:58.061Z,101154.41
2023-07-19T01:38:59.574Z,101157.22
2023-07-19T01:41:01.197Z,101162.59
2023-07-19T01:43:02.652Z,101161.75
2023-07-19T01:45:04.426Z,101161.75
2023-07-19T01:47:05.982Z,101167.13
2023-07-19T01:49:07.455Z,101174.31
2023-07-19T01:51:09.007Z,101170.78
2023-07-19T01:53:10.601Z,101175.31
2023-07-19T01:55:12.148Z,101170.06
2023-07-19T01:57:13.623Z,101167.38
2023-07-19T01:59:15.078Z,101181.69
2023-07-19T02:01:16.804Z,101172.88
2023-07-19T02:03:19.286Z,101180.09
2023-07-19T02:05:20.849Z,101180.09
2023-07-19T02:07:22.321Z,101178.41
2023-07-19T02:09:23.838Z,101186.47
2023-07-19T02:11:25.711Z,101171.31
2023-07-19T02:13:27.511Z,101181.19
2023-07-19T02:15:29.111Z,101184.00
2023-07-19T02:17:30.809Z,101187.56
2023-07-19T02:19:32.322Z,101181.34
2023-07-19T02:21:34.138Z,101180.50
2023-07-19T02:23:35.654Z,101185.00
2023-07-19T02:25:37.196Z,101182.31
2023-07-19T02:27:38.731Z,101185.97
2023-07-19T02:29:40.285Z,101189.66
2023-07-19T02:31:41.792Z,101185.28
2023-07-19T02:33:43.250Z,101189.78
2023-07-19T02:35:45.042Z,101193.31
2023-07-19T02:37:46.731Z,101189.91
2023-07-19T02:39:48.245Z,101192.59
2023-07-19T02:41:49.787Z,101192.72
2023-07-19T02:43:51.254Z,101200.78
2023-07-19T02:45:53.381Z,101196.41
2023-07-19T02:47:55.231Z,101201.75
2023-07-19T02:49:57.320Z,101209.81
2023-07-19T02:51:58.807Z,101208.09
2023-07-19T02:54:00.340Z,101209.09
2023-07-19T02:56:01.826Z,101205.56
2023-07-19T02:58:03.350Z,101204.69
2023-07-19T03:00:05.670Z,101208.38
2023-07-19T03:02:07.128Z,101207.50
2023-07-19T03:04:08.832Z,101207.50
2023-07-19T03:06:10.810Z,101211.16
2023-07-19T03:08:12.750Z,101214.00
2023-07-19T03:10:14.273Z,101211.31
2023-07-19T03:12:15.758Z,101220.34
2023-07-19T03:14:17.295Z,101215.94
2023-07-19T03:16:18.818Z,101220.34
2023-07-19T03:18:20.589Z,101223.16
2023-07-19T03:20:22.034Z,101219.59
2023-07-19T03:22:23.563Z,101220.47
2023-07-19T03:24:25.025Z,101227.81
2023-07-19T03:26:26.941Z,101226.97
2023-07-19T03:28:29.255Z,101230.63
2023-07-19T03:30:30.813Z,101219.16
2023-07-19T03:32:32.496Z,101232.56
2023-07-19T03:34:35.311Z,101225.50
2023-07-19T03:36:36.817Z,101234.50
2023-07-19T03:38:38.336Z,101231.84
2023-07-19T03:40:40.048Z,101235.53
2023-07-19T03:42:41.659Z,101226.59
2023-07-19T03:44:43.308Z,101233.81
2023-07-19T03:46:44.912Z,101239.19
2023-07-19T03:48:46.377Z,101240.16
2023-07-19T03:50:56.189Z,101251.88
2023-07-19T03:52:58.091Z,101243.81
2023-07-19T03:54:59.572Z,101257.25
2023-07-19T03:57:02.106Z,101252.00
2023-07-19T03:59:03.562Z,101257.38
2023-07-19T04:01:05.019Z,101257.38
2023-07-19T04:03:07.820Z,101263.72
2023-07-19T04:05:09.383Z,101263.84
2023-07-19T04:07:10.842Z,101270.06
2023-07-19T04:09:12.357Z,101270.19
2023-07-19T04:11:13.951Z,101264.81
2023-07-19T04:13:15.707Z,101272.00
2023-07-19T04:15:17.309Z,101273.00
2023-07-19T04:17:18.831Z,101280.19
2023-07-19T04:19:20.576Z,101282.88
2023-07-19T04:21:22.437Z,101286.53
2023-07-19T04:23:24.644Z,101285.69
2023-07-19T04:25:26.137Z,101285.69
2023-07-19T04:27:27.682Z,101282.28
2023-07-19T04:29:29.184Z,101285.09
2023-07-19T04:31:30.741Z,101285.94
2023-07-19T04:33:32.522Z,101286.06
2023-07-19T04:35:34.035Z,101288.75
2023-07-19T04:37:36.182Z,101288.88
2023-07-19T04:39:37.669Z,101288.88
2023-07-19T04:41:39.176Z,101288.00
2023-07-19T04:43:40.674Z,101297.03
2023-07-19T04:45:44.674Z,101292.66
2023-07-19T04:47:46.271Z,101297.16
2023-07-19T04:49:47.788Z,101294.59
2023-07-19T04:51:49.222Z,101294.59
2023-07-19T04:53:50.798Z,101294.59
2023-07-19T04:55:53.006Z,101296.44
2023-07-19T04:57:54.495Z,101292.91
2023-07-19T04:59:55.996Z,101295.59
2023-07-19T05:01:57.500Z,101299.97
2023-07-19T05:03:59.066Z,101298.25
2023-07-19T05:06:01.073Z,101298.25
2023-07-19T05:08:05.273Z,101294.84
2023-07-19T05:10:07.140Z,101300.22
2023-07-19T05:12:09.330Z,101301.22
2023-07-19T05:14:10.921Z,101290.47
2023-07-19T05:16:12.415Z,101291.44
2023-07-19T05:18:13.914Z,101293.25
2023-07-19T05:20:15.638Z,101301.22
2023-07-19T05:22:17.411Z,101296.06
2023-07-19T05:24:18.916Z,101304.97
2023-07-19T05:26:20.429Z,101298.75
2023-07-19T05:28:21.990Z,101295.25
2023-07-19T05:30:23.594Z,101305.97
2023-07-19T05:32:25.749Z,101309.50
2023-07-19T05:34:27.374Z,101308.66
2023-07-19T05:36:28.945Z,101310.47
2023-07-19T05:38:30.818Z,101315.00
2023-07-19T05:40:32.677Z,101322.16
2023-07-19T05:42:34.488Z,101317.69
2023-07-19T05:44:35.969Z,101317.69
2023-07-19T05:46:37.600Z,101314.13
2023-07-19T05:48:39.277Z,101317.78
2023-07-19T05:50:40.775Z,101321.44
2023-07-19T05:52:42.340Z,101308.88
2023-07-19T05:54:43.849Z,101316.06
2023-07-19T05:56:45.323Z,101320.56
2023-07-19T05:58:46.928Z,101321.53
2023-07-19T06:00:48.706Z,101328.59
2023-07-19T06:02:54.896Z,101329.56
2023-07-19T06:04:57.316Z,101332.25
2023-07-19T06:06:58.825Z,101334.22
2023-07-19T06:09:02.360Z,101339.59
2023-07-19T06:11:03.820Z,101336.03
2023-07-19T06:13:05.850Z,101342.38
2023-07-19T06:15:07.616Z,101329.84
2023-07-19T06:17:09.325Z,101326.41
2023-07-19T06:19:10.855Z,101328.25
2023-07-19T06:21:12.333Z,101338.84
2023-07-19T06:23:14.698Z,101333.50
2023-07-19T06:25:16.642Z,101336.19
2023-07-19T06:27:18.252Z,101337.16
2023-07-19T06:29:19.784Z,101335.44
2023-07-19T06:31:21.475Z,101335.44
2023-07-19T06:33:24.466Z,101335.44
2023-07-19T06:35:25.967Z,101331.91
2023-07-19T06:37:27.608Z,101331.91
2023-07-19T06:39:32.041Z,101326.53
2023-07-19T06:41:33.557Z,101321.19
2023-07-19T06:43:35.292Z,101320.31
2023-07-19T06:45:36.784Z,101312.25
2023-07-19T06:47:38.437Z,101318.50
2023-07-19T06:49:39.887Z,101324.47
2023-07-19T06:51:41.737Z,101328.88
2023-07-19T06:53:43.226Z,101329.13
2023-07-19T06:55:44.837Z,101333.28
2023-07-19T06:57:46.332Z,101338.25
2023-07-19T06:59:50.519Z,101335.06
2023-07-19T07:01:51.974Z,101329.31
2023-07-19T07:03:53.671Z,101337.88
2023-07-19T07:05:55.800Z,101332.38
2023-07-19T07:07:57.338Z,101337.38
2023-07-19T07:09:59.344Z,101335.06
2023-07-19T07:12:00.861Z,101335.56
2023-07-19T07:14:02.381Z,101337.50
2023-07-19T07:16:03.989Z,101329.69
2023-07-19T07:18:05.783Z,101341.44
2023-07-19T07:20:07.737Z,101339.81
2023-07-19T07:22:09.216Z,101339.22
2023-07-19T07:24:10.721Z,101336.53
2023-07-19T07:26:12.780Z,101338.25
2023-07-19T07:28:14.283Z,101334.72
2023-07-19T07:30:15.832Z,101332.03
2023-07-19T07:32:17.278Z,101333.00
2023-07-19T07:34:18.803Z,101326.81
2023-07-19T07:36:20.266Z,101322.28
2023-07-19T07:38:21.764Z,101328.63
2023-07-19T07:40:23.461Z,101330.31
2023-07-19T07:42:25.541Z,101333.00
2023-07-19T07:44:27.722Z,101333.00
2023-07-19T07:46:30.477Z,101334.72
2023-07-19T07:48:33.071Z,101336.44
2023-07-19T07:50:34.663Z,101335.56
2023-07-19T07:52:36.671Z,101333.75
2023-07-19T07:54:38.781Z,101341.06
2023-07-19T07:56:40.630Z,101338.38
2023-07-19T07:58:42.095Z,101341.19
2023-07-19T08:00:44.443Z,101338.50
2023-07-19T08:02:46.379Z,101326.69
2023-07-19T08:04:48.988Z,101339.63
2023-07-19T08:06:50.470Z,101345.81
2023-07-19T08:08:51.967Z,101337.63
2023-07-19T08:10:53.495Z,101342.16
2023-07-19T08:12:54.966Z,101340.31
2023-07-19T08:14:56.399Z,101335.97
2023-07-19T08:17:00.529Z,101338.66
2023-07-19T08:19:03.962Z,101340.22
2023-07-19T08:21:07.013Z,101344.84
2023-07-19T08:23:08.840Z,101338.03
2023-07-19T08:25:25.034Z,101332.91
2023-07-19T08:27:28.346Z,101350.25
2023-07-19T08:29:29.986Z,101337.66
2023-07-19T08:31:31.494Z,101342.19
2023-07-19T08:33:33.418Z,101345.31
2023-07-19T08:35:34.914Z,101338.84
2023-07-19T08:37:36.531Z,101335.53
2023-07-19T08:39:38.106Z,101344.94
2023-07-19T08:41:39.725Z,101340.63
2023-07-19T08:43:42.289Z,101339.31
2023-07-19T08:45:43.780Z,101342.47
2023-07-19T08:47:45.606Z,101338.06
2023-07-19T08:49:47.762Z,101341.84
2023-07-19T08:51:49.313Z,101337.09
2023-07-19T08:53:50.991Z,101337.69
2023-07-19T08:55:53.216Z,101343.66
2023-07-19T08:57:54.656Z,101335.81
2023-07-19T08:59:56.279Z,101333.22
2023-07-19T09:01:57.859Z,101332.56
2023-07-19T09:03:59.711Z,101333.97
2023-07-19T09:08:03.668Z,101332.69
2023-07-19T09:10:06.118Z,101322.00
2023-07-19T09:12:08.796Z,101321.09
2023-07-19T09:14:10.281Z,101322.88
2023-07-19T09:16:11.817Z,101321.09
2023-07-19T09:18:13.417Z,101321.78
2023-07-19T09:20:15.734Z,101332.06
2023-07-19T09:22:17.194Z,101337.16
2023-07-19T09:24:18.699Z,101331.78
2023-07-19T09:26:20.254Z,101319.31
2023-07-19T09:28:23.156Z,101327.06
2023-07-19T09:30:25.033Z,101334.25
2023-07-19T09:32:26.827Z,101336.09
2023-07-19T09:34:38.053Z,101334.59
2023-07-19T09:36:41.105Z,101333.13
2023-07-19T09:38:42.637Z,101330.72
2023-07-19T09:40:44.129Z,101339.63
2023-07-19T09:42:45.868Z,101319.13
2023-07-19T09:44:48.041Z,101333.03
2023-07-19T09:46:49.792Z,101328.09
2023-07-19T09:48:51.316Z,101316.31
2023-07-19T09:50:54.677Z,101337.28
2023-07-19T09:52:58.492Z,101329.44
2023-07-19T09:55:00.138Z,101329.31
2023-07-19T09:57:03.490Z,101329.69
2023-07-19T09:59:23.826Z,101328.03
2023-07-19T10:01:25.567Z,101327.34
2023-07-19T10:03:27.263Z,101329.31
2023-07-19T10:05:29.895Z,101331.28
2023-07-19T10:07:45.002Z,101331.63
2023-07-19T10:10:02.315Z,101334.59
2023-07-19T10:12:08.445Z,101324.47
2023-07-19T10:14:20.367Z,101328.19
2023-07-19T10:16:35.159Z,101323.28
2023-07-19T10:18:37.408Z,101321.34
2023-07-19T10:20:41.264Z,101325.88
2023-07-19T10:22:46.614Z,101326.66
2023-07-19T10:25:03.811Z,101330.22
2023-07-19T10:27:06.463Z,101326.78
2023-07-19T10:29:07.949Z,101325.91
2023-07-19T10:31:28.092Z,101328.00
2023-07-19T10:33:31.824Z,101328.50
2023-07-19T10:35:33.348Z,101327.25
2023-07-19T10:37:35.078Z,101330.66
2023-07-19T10:39:36.540Z,101328.75
2023-07-19T10:41:37.958Z,101324.09
2023-07-19T10:45:44.015Z,101325.47
2023-07-19T10:47:45.810Z,101322.78
2023-07-19T10:49:47.690Z,101329.66
2023-07-19T10:51:56.392Z,101334.41
2023-07-19T10:53:59.277Z,101322.78
2023-07-19T10:56:01.051Z,101320.97
2023-07-19T10:58:02.575Z,101322.78
2023-07-19T11:00:10.815Z,101329.84
2023-07-19T11:02:12.525Z,101331.56
2023-07-19T11:04:14.144Z,101329.72
2023-07-19T11:06:15.827Z,101325.59
2023-07-19T11:08:21.337Z,101337.91
2023-07-19T11:10:22.937Z,101331.81
2023-07-19T11:12:24.661Z,101323.66
2023-07-19T11:14:33.163Z,101329.41
2023-07-19T11:16:34.980Z,101329.84
2023-07-19T11:18:37.372Z,101320.81
2023-07-19T11:20:40.293Z,101324.25
2023-07-19T11:22:41.916Z,101331.03
2023-07-19T11:24:43.487Z,101324.09
2023-07-19T11:26:52.168Z,101327.63
2023-07-19T11:28:57.439Z,101322.00
2023-07-19T11:30:59.060Z,101320.59
2023-07-19T11:33:04.893Z,101322.06
2023-07-19T11:35:06.571Z,101318.78
2023-07-19T11:37:15.888Z,101323.44
2023-07-19T11:39:18.086Z,101317.53
2023-07-19T11:41:19.958Z,101324.63
2023-07-19T11:43:25.703Z,101329.25
2023-07-19T11:45:28.352Z,101329.19
2023-07-19T11:47:30.126Z,101320.88
2023-07-19T11:49:31.729Z,101323.19
2023-07-19T11:51:33.238Z,101322.06
2023-07-19T11:53:34.786Z,101329.75
2023-07-19T11:55:36.366Z,101324.38
2023-07-19T11:57:41.897Z,101323.84
2023-07-19T11:59:43.401Z,101324.81
2023-07-19T12:01:45.010Z,101317.00
2023-07-19T12:03:47.493Z,101336.94
2023-07-19T12:05:48.962Z,101321.16
2023-07-19T12:07:51.884Z,101326.78
2023-07-19T12:09:53.422Z,101315.78
2023-07-19T12:11:54.937Z,101326.53
2023-07-19T12:13:59.131Z,101318.47
2023-07-19T12:16:00.654Z,101307.56
2023-07-19T12:18:02.896Z,101314.78
2023-07-19T12:20:05.209Z,101309.16
2023-07-19T12:24:11.191Z,101311.50
2023-07-19T12:26:12.750Z,101307.25
2023-07-19T12:28:15.758Z,101304.44
2023-07-19T12:30:17.215Z,101314.28
2023-07-19T12:32:19.512Z,101306.59
2023-07-19T12:34:21.392Z,101301.19
2023-07-19T12:36:23.340Z,101296.88
2023-07-19T12:38:25.354Z,101299.63
2023-07-19T12:40:26.963Z,101304.16
2023-07-19T12:42:30.164Z,101306.31
2023-07-19T12:44:32.211Z,101305.94
2023-07-19T12:46:33.915Z,101297.53
2023-07-19T12:48:36.778Z,101296.69
2023-07-19T12:50:38.685Z,101299.31
2023-07-19T12:52:51.015Z,101300.31
2023-07-19T12:54:53.689Z,101290.28
2023-07-19T12:56:55.329Z,101287.25
2023-07-19T12:58:57.228Z,101281.88
2023-07-19T13:00:58.851Z,101281.47
2023-07-19T13:03:02.492Z,101280.22
2023-07-19T13:05:04.697Z,101286.75
2023-07-19T13:07:06.816Z,101287.50
2023-07-19T13:09:09.030Z,101286.91
2023-07-19T13:11:10.767Z,101286.19
2023-07-19T13:13:12.355Z,101286.31
2023-07-19T13:15:13.801Z,101288.22
2023-07-19T13:17:21.904Z,101293.31
2023-07-19T13:19:24.624Z,101288.06
2023-07-19T13:21:26.541Z,101281.78
2023-07-19T13:23:28.119Z,101284.59
2023-07-19T13:25:29.606Z,101289.63
2023-07-19T13:27:31.234Z,101289.38
2023-07-19T13:29:33.042Z,101284.00
2023-07-19T13:31:34.682Z,101277.34
2023-07-19T13:33:36.400Z,101284.13
2023-07-19T13:39:46.713Z,101281.03
2023-07-19T13:41:48.194Z,101288.56
2023-07-19T13:43:49.691Z,101271.72
2023-07-19T13:45:51.292Z,101285.41
2023-07-19T13:47:53.002Z,101277.59
2023-07-19T13:49:54.733Z,101275.94
2023-07-19T13:51:56.282Z,101274.91
2023-07-19T13:53:57.800Z,101276.03
2023-07-19T13:55:59.252Z,101285.97
2023-07-19T13:58:01.059Z,101285.38
2023-07-19T14:00:02.507Z,101285.19
2023-07-19T14:02:04.847Z,101279.91
2023-07-19T14:04:06.453Z,101282.00
2023-07-19T14:06:08.173Z,101279.31
2023-07-19T14:08:10.133Z,101281.28
2023-07-19T14:10:12.153Z,101276.28
2023-07-19T14:12:15.094Z,101284.63
2023-07-19T14:14:17.452Z,101273.88
2023-07-19T14:16:19.360Z,101281.06
2023-07-19T14:18:20.861Z,101274.97
2023-07-19T14:20:22.389Z,101284.03
2023-07-19T14:22:23.916Z,101273.28
2023-07-19T14:24:26.205Z,101275.25
2023-07-19T14:26:27.737Z,101274.06
2023-07-19T14:28:29.273Z,101276.28
2023-07-19T14:30:30.873Z,101277.41
2023-07-19T14:32:32.434Z,101275.72
2023-07-19T14:34:38.757Z,101274.66
2023-07-19T14:36:41.265Z,101266.84
2023-07-19T14:38:42.864Z,101272.09
2023-07-19T14:40:44.397Z,101277.22
2023-07-19T14:42:46.150Z,101277.94
2023-07-19T14:44:47.696Z,101270.72
2023-07-19T14:46:49.205Z,101273.16
2023-07-19T14:48:50.942Z,101271.31
2023-07-19T14:53:08.228Z,101275.56
2023-07-19T14:55:10.146Z,101278.25
2023-07-19T14:57:11.701Z,101278.25
2023-07-19T14:59:13.230Z,101272.75
2023-07-19T15:01:14.804Z,101275.56
2023-07-19T15:03:28.179Z,101266.28
2023-07-19T15:05:30.776Z,101271.66
2023-07-19T15:07:32.725Z,101283.25
2023-07-19T15:09:34.290Z,101279.72
2023-07-19T15:11:36.004Z,101282.25
2023-07-19T15:13:38.207Z,101281.53
2023-07-19T15:15:45.219Z,101271.91
2023-07-19T15:17:47.894Z,101273.03
2023-07-19T15:19:50.152Z,101275.84
2023-07-19T15:21:51.769Z,101269.59
2023-07-19T15:23:53.418Z,101277.53
2023-07-19T15:25:55.393Z,101282.41
2023-07-19T15:27:57.445Z,101272.75
2023-07-19T15:30:00.627Z,101268.97
2023-07-19T15:32:02.428Z,101263.97
2023-07-19T15:34:04.008Z,101258.00
2023-07-19T15:36:06.131Z,101263.25
2023-07-19T15:38:07.927Z,101256.75
2023-07-19T15:40:09.758Z,101252.25
2023-07-19T15:42:11.605Z,101249.03
2023-07-19T15:44:29.367Z,101252.53
2023-07-19T15:46:34.729Z,101251.03
2023-07-19T15:48:37.491Z,101254.56
2023-07-19T15:50:39.857Z,101253.34
2023-07-19T15:52:41.968Z,101256.16
2023-07-19T15:54:43.568Z,101251.03
2023-07-19T15:56:45.096Z,101256.16
2023-07-19T15:58:46.567Z,101244.28
2023-07-19T16:00:48.202Z,101240.59
2023-07-19T16:02:49.764Z,101242.19
2023-07-19T16:04:51.498Z,101244.63
2023-07-19T16:06:53.044Z,101233.13
2023-07-19T16:08:55.511Z,101229.72
2023-07-19T16:10:56.954Z,101231.63
2023-07-19T16:12:58.555Z,101242.97
2023-07-19T16:15:00.140Z,101244.28
2023-07-19T16:17:01.687Z,101242.19
2023-07-19T16:19:03.562Z,101236.06
2023-07-19T16:21:05.248Z,101237.44
2023-07-19T16:23:06.819Z,101231.47
2023-07-19T16:25:11.019Z,101227.63
2023-07-19T16:27:12.672Z,101230.97
2023-07-19T16:29:14.183Z,101232.69
2023-07-19T16:31:19.059Z,101235.38
2023-07-19T16:33:20.626Z,101233.53
2023-07-19T16:35:22.199Z,101230.53
2023-07-19T16:37:23.917Z,101230.78
2023-07-19T16:39:25.449Z,101227.41
2023-07-19T16:41:26.894Z,101228.81
2023-07-19T16:43:28.471Z,101219.41
2023-07-19T16:45:30.001Z,101234.00
2023-07-19T16:47:31.737Z,101228.09
2023-07-19T16:49:33.370Z,101224.88
2023-07-19T16:51:34.918Z,101226.88
2023-07-19T16:53:36.439Z,101219.44
2023-07-19T16:55:37.926Z,101227.50
2023-07-19T16:57:39.506Z,101230.84
2023-07-19T16:59:41.051Z,101227.84
2023-07-19T17:01:42.612Z,101219.88
2023-07-19T17:03:44.347Z,101221.31
2023-07-19T17:05:46.059Z,101220.44
2023-07-19T17:07:47.983Z,101224.69
2023-07-19T17:09:49.638Z,101221.19
2023-07-19T17:11:51.505Z,101216.78
2023-07-19T17:13:53.990Z,101217.19
2023-07-19T17:15:55.734Z,101213.66
2023-07-19T17:17:59.525Z,101209.50
2023-07-19T17:20:01.245Z,101210.88
2023-07-19T17:22:02.796Z,101207.63
2023-07-19T17:24:04.400Z,101212.41
2023-07-19T17:26:06.051Z,101203.91
2023-07-19T17:28:07.569Z,101211.25
2023-07-19T17:30:09.536Z,101211.38
2023-07-19T17:32:13.844Z,101219.69
2023-07-19T17:34:15.296Z,101210.22
2023-07-19T17:36:16.872Z,101207.78
2023-07-19T17:38:18.367Z,101209.72
2023-07-19T17:40:19.927Z,101209.88
2023-07-19T17:42:21.830Z,101210.84
2023-07-19T17:44:23.393Z,101205.63
2023-07-19T17:46:24.956Z,101210.25
2023-07-19T17:48:26.456Z,101208.69
2023-07-19T17:50:28.319Z,101223.25
2023-07-19T17:52:30.463Z,101220.72
2023-07-19T17:54:31.932Z,101225.34
2023-07-19T17:56:33.463Z,101225.50
2023-07-19T17:58:36.550Z,101216.69
2023-07-19T18:00:38.093Z,101223.06
2023-07-19T18:02:39.745Z,101217.69
2023-07-19T18:04:42.310Z,101215.97
2023-07-19T18:06:44.010Z,101222.34
2023-07-19T18:08:45.560Z,101233.94
2023-07-19T18:10:47.197Z,101229.69
2023-07-19T18:12:48.737Z,101231.63
2023-07-19T18:14:50.564Z,101228.13
2023-07-19T18:16:52.101Z,101231.78
2023-07-19T18:18:53.813Z,101229.34
2023-07-19T18:20:55.735Z,101238.28
2023-07-19T18:22:57.249Z,101234.00
2023-07-19T18:24:59.166Z,101243.88
2023-07-19T18:27:01.263Z,101227.06
2023-07-19T18:29:03.705Z,101229.84
2023-07-19T18:31:05.222Z,101233.53
2023-07-19T18:33:06.835Z,101232.69
2023-07-19T18:35:08.521Z,101233.66
2023-07-19T18:37:10.044Z,101235.50
2023-07-19T18:39:12.882Z,101236.50
2023-07-19T18:41:14.707Z,101244.53
2023-07-19T18:43:16.316Z,101247.22
2023-07-19T18:45:17.867Z,101248.19
2023-07-19T18:47:19.357Z,101244.75
2023-07-19T18:49:20.837Z,101240.25
2023-07-19T18:51:23.567Z,101242.22
2023-07-19T18:53:26.793Z,101249.44
2023-07-19T18:55:28.221Z,101251.25
2023-07-19T18:57:30.381Z,101247.84
2023-07-19T18:59:31.965Z,101259.44
2023-07-19T19:01:34.457Z,101254.22
2023-07-19T19:03:36.132Z,101256.03
2023-07-19T19:05:37.664Z,101263.25
2023-07-19T19:07:39.182Z,101254.31
2023-07-19T19:09:40.664Z,101255.31
2023-07-19T19:11:42.131Z,101254.44
2023-07-19T19:13:43.576Z,101258.00
2023-07-19T19:15:46.073Z,101257.13
2023-07-19T19:17:48.007Z,101264.34
2023-07-19T19:19:49.889Z,101259.94
2023-07-19T19:21:51.529Z,101263.63
2023-07-19T19:23:53.062Z,101260.94
2023-07-19T19:25:54.667Z,101263.63
2023-07-19T19:27:56.429Z,101269.97
2023-07-19T19:29:58.194Z,101266.44
2023-07-19T19:31:59.910Z,101266.53
2023-07-19T19:34:01.451Z,101266.69
2023-07-19T19:36:02.978Z,101267.66
2023-07-19T19:38:04.632Z,101274.72
2023-07-19T19:40:10.103Z,101276.59
2023-07-19T19:42:11.590Z,101283.91
2023-07-19T19:44:13.126Z,101283.06
2023-07-19T19:46:14.733Z,101281.22
2023-07-19T19:48:16.475Z,101290.25
2023-07-19T19:50:18.059Z,101284.16
2023-07-19T19:52:19.796Z,101288.66
2023-07-19T19:54:22.902Z,101296.72
2023-07-19T19:58:32.788Z,101296.72
2023-07-19T20:00:35.948Z,101299.41
2023-07-19T20:02:38.348Z,101302.22
2023-07-19T20:04:40.192Z,101303.94
2023-07-19T20:06:41.832Z,101305.91
2023-07-19T20:12:54.772Z,101303.34
2023-07-19T20:14:56.379Z,101297.09
2023-07-19T20:16:57.951Z,101302.59
2023-07-19T20:23:02.422Z,101299.09
2023-07-19T20:25:19.584Z,101308.09
2023-07-19T20:27:26.297Z,101308.09
2023-07-19T20:29:27.852Z,101315.28
2023-07-19T20:33:36.063Z,101298.47
2023-07-19T20:37:42.323Z,101305.66
2023-07-19T20:41:48.690Z,101313.84
2023-07-19T20:43:50.449Z,101313.97
2023-07-19T20:45:52.045Z,101316.53
2023-07-19T20:47:53.540Z,101319.34
2023-07-19T20:49:55.011Z,101321.16
2023-07-19T20:51:56.530Z,101312.28
2023-07-19T20:53:58.138Z,101310.56
2023-07-19T20:55:59.593Z,101317.63
2023-07-19T20:58:01.100Z,101310.56
2023-07-19T21:00:03.329Z,101318.63
2023-07-19T21:02:05.082Z,101316.06
2023-07-19T21:04:06.580Z,101315.19
2023-07-19T21:06:08.109Z,101312.50
2023-07-19T21:08:09.628Z,101311.66
2023-07-19T21:10:11.547Z,101317.03
2023-07-19T21:12:13.087Z,101311.81
2023-07-19T21:14:14.829Z,101319.84
2023-07-19T21:16:16.303Z,101318.13
2023-07-19T21:18:18.096Z,101324.34
2023-07-19T21:20:20.350Z,101317.28
2023-07-19T21:22:22.107Z,101321.81
2023-07-19T21:24:23.631Z,101315.56
2023-07-19T21:26:25.122Z,101320.09
2023-07-19T21:28:26.740Z,101310.47
2023-07-19T21:30:28.310Z,101320.22
2023-07-19T21:32:29.970Z,101315.81
2023-07-19T21:34:31.475Z,101321.31
2023-07-19T21:36:33.137Z,101318.63
2023-07-19T21:38:34.815Z,101316.94
2023-07-19T21:40:36.292Z,101319.63
2023-07-19T21:42:38.087Z,101318.75
2023-07-19T21:44:39.615Z,101316.19
2023-07-19T21:46:41.974Z,101316.19
2023-07-19T21:48:43.541Z,101315.34
2023-07-19T21:50:48.734Z,101321.69
2023-07-19T21:52:50.790Z,101319.09
2023-07-19T21:54:52.274Z,101318.25
2023-07-19T21:56:53.719Z,101325.47
2023-07-19T21:58:55.225Z,101323.75
2023-07-19T22:00:56.936Z,101315.47
2023-07-19T22:02:58.527Z,101320.22
2023-07-19T22:05:00.410Z,101323.88
2023-07-19T22:07:03.413Z,101323.03
2023-07-19T22:09:06.036Z,101326.56
2023-07-19T22:11:08.760Z,101320.34
2023-07-19T22:13:10.477Z,101323.03
2023-07-19T22:15:11.915Z,101326.69
2023-07-19T22:17:13.394Z,101324.13
2023-07-19T22:19:15.458Z,101320.59
2023-07-19T22:21:22.318Z,101314.38
2023-07-19T22:23:24.564Z,101321.56
2023-07-19T22:25:26.090Z,101326.06
2023-07-19T22:27:27.731Z,101331.56
2023-07-19T22:29:29.221Z,101337.91
2023-07-19T22:31:31.214Z,101334.38
2023-07-19T22:33:32.688Z,101342.44
2023-07-19T22:35:34.390Z,101337.16
2023-07-19T22:37:35.926Z,101344.38
2023-07-19T22:39:37.440Z,101339.00
2023-07-19T22:41:39.169Z,101343.53
2023-07-19T22:43:40.645Z,101339.97
2023-07-19T22:45:42.238Z,101351.59
2023-07-19T22:47:43.744Z,101344.50
2023-07-19T22:49:46.402Z,101346.31
2023-07-19T22:51:48.082Z,101341.91
2023-07-19T22:53:49.584Z,101343.75
2023-07-19T22:55:51.065Z,101349.22
2023-07-19T22:57:53.344Z,101346.53
2023-07-19T22:59:54.884Z,101351.03
2023-07-19T23:01:56.489Z,101351.03
2023-07-19T23:03:58.151Z,101350.19
2023-07-19T23:05:59.734Z,101348.50
2023-07-19T23:08:01.289Z,101361.91
2023-07-19T23:10:03.497Z,101354.81
2023-07-19T23:12:05.117Z,101353.00
2023-07-19T23:14:09.503Z,101360.19
2023-07-19T23:16:11.120Z,101361.16
2023-07-19T23:18:12.593Z,101340.53
2023-07-19T23:20:14.625Z,101355.09
2023-07-19T23:22:16.934Z,101351.53
2023-07-19T23:24:18.634Z,101357.88
2023-07-19T23:26:23.941Z,101348.00
2023-07-19T23:28:25.683Z,101358.75
2023-07-19T23:30:28.768Z,101351.66
2023-07-19T23:32:30.543Z,101353.50
2023-07-19T23:34:32.330Z,101353.50
2023-07-19T23:36:33.808Z,101352.75
2023-07-19T23:38:35.356Z,101353.59
2023-07-19T23:40:36.843Z,101351.78
2023-07-19T23:42:38.379Z,101350.91
2023-07-19T23:44:40.612Z,101348.38